Terminal Aerodrome Forecast
Issued by NWS

Home | Current Version | Previous Version | Text Only | Print | Product List | Glossary On
Versions: 1 2 3 4 5 6 7 8 9 10 11 12 13 14 15 16 17 18 19 20 21
000
FTUS43 KDMX 191729
TAFMCW
TAF
KMCW 191729Z 1918/2018 18021G28KT P6SM BKN200
     FM200100 18010KT P6SM BKN040 OVC100
     FM200600 19010KT P6SM VCSH OVC035=

USA.gov is the U.S. government's official web portal to all federal, state and local government web resources and services.